sensor_id;sensor_type;location;lat;lon;timestamp;pressure;altitude;pressure_sealevel;temperature;humidity
8318;BME280;4196;48.926;8.964;2022-10-03T00:06:40;99900.81;;;11.10;100.00
8318;BME280;4196;48.926;8.964;2022-10-03T00:15:54;99910.44;;;11.26;100.00
8318;BME280;4196;48.926;8.964;2022-10-03T00:18:57;99914.78;;;11.27;100.00
8318;BME280;4196;48.926;8.964;2022-10-03T00:22:23;99907.78;;;11.19;100.00
8318;BME280;4196;48.926;8.964;2022-10-03T00:25:27;99905.25;;;11.25;100.00
8318;BME280;4196;48.926;8.964;2022-10-03T00:28:19;99912.19;;;11.29;100.00
8318;BME280;4196;48.926;8.964;2022-10-03T00:31:21;99909.47;;;11.15;100.00
8318;BME280;4196;48.926;8.964;2022-10-03T00:40:28;99932.00;;;11.22;100.00
8318;BME280;4196;48.926;8.964;2022-10-03T00:53:06;99938.78;;;11.08;100.00
8318;BME280;4196;48.926;8.964;2022-10-03T01:03:14;99939.69;;;11.10;100.00
8318;BME280;4196;48.926;8.964;2022-10-03T01:09:40;99897.88;;;10.75;100.00
8318;BME280;4196;48.926;8.964;2022-10-03T01:18:58;99930.09;;;11.00;100.00
8318;BME280;4196;48.926;8.964;2022-10-03T01:27:58;99948.19;;;10.97;100.00
8318;BME280;4196;48.926;8.964;2022-10-03T01:31:09;99943.91;;;10.97;100.00
8318;BME280;4196;48.926;8.964;2022-10-03T01:34:22;99953.44;;;11.04;100.00
8318;BME280;4196;48.926;8.964;2022-10-03T01:37:31;99962.94;;;11.04;100.00
8318;BME280;4196;48.926;8.964;2022-10-03T01:40:30;99958.66;;;11.07;100.00
8318;BME280;4196;48.926;8.964;2022-10-03T01:43:53;99961.25;;;11.06;100.00
8318;BME280;4196;48.926;8.964;2022-10-03T01:53:13;99976.69;;;10.94;100.00
8318;BME280;4196;48.926;8.964;2022-10-03T01:56:22;99973.19;;;10.92;100.00
8318;BME280;4196;48.926;8.964;2022-10-03T01:59:17;99987.78;;;10.83;100.00
8318;BME280;4196;48.926;8.964;2022-10-03T02:05:16;99978.22;;;10.76;100.00
8318;BME280;4196;48.926;8.964;2022-10-03T02:08:14;99987.72;;;10.77;100.00
8318;BME280;4196;48.926;8.964;2022-10-03T02:11:08;99981.59;;;10.69;100.00
8318;BME280;4196;48.926;8.964;2022-10-03T02:14:23;99986.72;;;10.68;100.00
8318;BME280;4196;48.926;8.964;2022-10-03T02:17:52;99980.72;;;10.69;100.00
8318;BME280;4196;48.926;8.964;2022-10-03T02:21:08;99979.66;;;10.53;100.00
8318;BME280;4196;48.926;8.964;2022-10-03T02:36:52;99980.00;;;10.15;100.00
8318;BME280;4196;48.926;8.964;2022-10-03T02:46:44;99982.94;;;9.80;100.00
8318;BME280;4196;48.926;8.964;2022-10-03T02:59:57;99981.66;;;9.54;100.00
8318;BME280;4196;48.926;8.964;2022-10-03T03:06:47;99973.06;;;9.55;100.00
8318;BME280;4196;48.926;8.964;2022-10-03T03:16:10;99971.41;;;9.60;100.00
8318;BME280;4196;48.926;8.964;2022-10-03T03:19:38;99976.63;;;9.63;100.00
8318;BME280;4196;48.926;8.964;2022-10-03T03:38:40;99975.69;;;9.58;100.00
8318;BME280;4196;48.926;8.964;2022-10-03T03:45:39;99983.34;;;9.53;100.00
8318;BME280;4196;48.926;8.964;2022-10-03T03:48:47;99984.16;;;9.49;100.00
8318;BME280;4196;48.926;8.964;2022-10-03T03:51:44;99980.69;;;9.47;100.00
8318;BME280;4196;48.926;8.964;2022-10-03T03:54:58;99994.31;;;9.38;100.00
8318;BME280;4196;48.926;8.964;2022-10-03T04:22:56;99986.69;;;9.44;100.00
8318;BME280;4196;48.926;8.964;2022-10-03T04:38:42;100020.44;;;9.54;100.00
8318;BME280;4196;48.926;8.964;2022-10-03T04:41:39;100016.81;;;9.44;100.00
8318;BME280;4196;48.926;8.964;2022-10-03T04:48:14;100008.34;;;9.51;100.00
8318;BME280;4196;48.926;8.964;2022-10-03T04:54:51;100016.28;;;9.62;100.00
8318;BME280;4196;48.926;8.964;2022-10-03T05:01:02;100010.94;;;9.53;100.00
8318;BME280;4196;48.926;8.964;2022-10-03T05:04:25;100026.56;;;9.59;100.00
8318;BME280;4196;48.926;8.964;2022-10-03T05:10:25;100028.47;;;9.69;100.00
8318;BME280;4196;48.926;8.964;2022-10-03T05:13:31;100031.06;;;9.71;100.00
8318;BME280;4196;48.926;8.964;2022-10-03T05:16:36;100032.88;;;9.76;100.00
8318;BME280;4196;48.926;8.964;2022-10-03T05:22:49;100034.63;;;9.77;100.00
8318;BME280;4196;48.926;8.964;2022-10-03T05:41:24;100077.66;;;9.72;100.00
8318;BME280;4196;48.926;8.964;2022-10-03T05:44:16;100069.91;;;9.72;100.00
8318;BME280;4196;48.926;8.964;2022-10-03T05:47:13;100053.28;;;9.61;100.00
8318;BME280;4196;48.926;8.964;2022-10-03T06:00:20;100077.47;;;10.13;100.00
8318;BME280;4196;48.926;8.964;2022-10-03T06:07:07;100072.13;;;10.04;100.00
8318;BME280;4196;48.926;8.964;2022-10-03T06:10:33;100081.03;;;10.21;100.00
8318;BME280;4196;48.926;8.964;2022-10-03T06:26:54;100096.00;;;10.39;100.00
8318;BME280;4196;48.926;8.964;2022-10-03T06:30:10;100099.41;;;10.35;100.00
8318;BME280;4196;48.926;8.964;2022-10-03T06:36:12;100107.22;;;10.39;100.00
8318;BME280;4196;48.926;8.964;2022-10-03T06:54:44;100117.84;;;10.58;100.00
8318;BME280;4196;48.926;8.964;2022-10-03T07:01:25;100127.50;;;10.71;100.00
8318;BME280;4196;48.926;8.964;2022-10-03T07:07:47;100137.53;;;11.09;100.00
8318;BME280;4196;48.926;8.964;2022-10-03T07:30:17;100153.03;;;11.06;100.00
8318;BME280;4196;48.926;8.964;2022-10-03T07:36:39;100141.69;;;10.96;100.00
8318;BME280;4196;48.926;8.964;2022-10-03T07:46:51;100157.75;;;11.37;100.00
8318;BME280;4196;48.926;8.964;2022-10-03T07:56:04;100167.28;;;11.39;100.00
8318;BME280;4196;48.926;8.964;2022-10-03T08:11:45;100176.44;;;11.85;100.00
8318;BME280;4196;48.926;8.964;2022-10-03T08:20:20;100175.81;;;12.04;100.00
8318;BME280;4196;48.926;8.964;2022-10-03T08:39:10;100177.88;;;12.45;100.00
8318;BME280;4196;48.926;8.964;2022-10-03T08:48:41;100172.09;;;12.92;100.00
8318;BME280;4196;48.926;8.964;2022-10-03T08:51:52;100172.13;;;12.94;100.00
8318;BME280;4196;48.926;8.964;2022-10-03T08:54:45;100173.03;;;13.02;100.00
8318;BME280;4196;48.926;8.964;2022-10-03T08:58:03;100168.72;;;13.10;100.00
8318;BME280;4196;48.926;8.964;2022-10-03T09:17:21;100177.25;;;12.85;100.00
8318;BME280;4196;48.926;8.964;2022-10-03T09:20:16;100179.06;;;12.95;100.00
8318;BME280;4196;48.926;8.964;2022-10-03T09:29:22;100163.53;;;13.10;100.00
8318;BME280;4196;48.926;8.964;2022-10-03T09:32:58;100160.09;;;13.14;100.00
8318;BME280;4196;48.926;8.964;2022-10-03T09:55:25;100151.38;;;13.06;100.00
8318;BME280;4196;48.926;8.964;2022-10-03T10:05:19;100164.72;;;13.93;100.00
8318;BME280;4196;48.926;8.964;2022-10-03T10:27:50;100167.06;;;13.21;100.00
8318;BME280;4196;48.926;8.964;2022-10-03T10:34:16;100166.38;;;13.59;100.00
8318;BME280;4196;48.926;8.964;2022-10-03T10:43:54;100182.94;;;13.92;100.00
8318;BME280;4196;48.926;8.964;2022-10-03T10:47:10;100175.13;;;14.13;100.00
8318;BME280;4196;48.926;8.964;2022-10-03T11:00:12;100148.19;;;14.88;91.37
8318;BME280;4196;48.926;8.964;2022-10-03T11:38:15;100145.47;;;15.21;91.12
8318;BME280;4196;48.926;8.964;2022-10-03T11:41:25;100145.44;;;15.23;90.94
8318;BME280;4196;48.926;8.964;2022-10-03T11:44:18;100136.78;;;15.19;88.80
8318;BME280;4196;48.926;8.964;2022-10-03T11:47:32;100142.88;;;15.12;88.53
8318;BME280;4196;48.926;8.964;2022-10-03T11:50:44;100135.97;;;15.04;89.74
8318;BME280;4196;48.926;8.964;2022-10-03T11:56:40;100139.56;;;14.58;89.25
8318;BME280;4196;48.926;8.964;2022-10-03T11:59:45;100142.16;;;14.27;91.05
8318;BME280;4196;48.926;8.964;2022-10-03T12:06:08;100136.94;;;14.14;96.15
8318;BME280;4196;48.926;8.964;2022-10-03T12:09:33;100130.88;;;14.16;94.58
8318;BME280;4196;48.926;8.964;2022-10-03T12:12:45;100130.00;;;14.23;98.07
8318;BME280;4196;48.926;8.964;2022-10-03T12:15:48;100122.19;;;14.08;98.54
8318;BME280;4196;48.926;8.964;2022-10-03T12:21:50;100109.16;;;14.00;99.38
8318;BME280;4196;48.926;8.964;2022-10-03T12:24:42;100121.31;;;14.18;97.74
8318;BME280;4196;48.926;8.964;2022-10-03T12:30:36;100106.53;;;14.60;98.17
8318;BME280;4196;48.926;8.964;2022-10-03T12:39:44;100107.97;;;15.38;90.35
8318;BME280;4196;48.926;8.964;2022-10-03T12:42:53;100101.81;;;15.53;90.86
8318;BME280;4196;48.926;8.964;2022-10-03T12:45:52;100100.00;;;15.61;85.71
8318;BME280;4196;48.926;8.964;2022-10-03T12:54:49;100092.91;;;15.86;85.71
8318;BME280;4196;48.926;8.964;2022-10-03T12:57:44;100087.75;;;15.77;89.32
8318;BME280;4196;48.926;8.964;2022-10-03T13:11:59;100086.06;;;15.71;90.12
8318;BME280;4196;48.926;8.964;2022-10-03T13:18:40;100075.34;;;16.05;79.10
8318;BME280;4196;48.926;8.964;2022-10-03T13:21:55;100062.28;;;16.06;82.94
8318;BME280;4196;48.926;8.964;2022-10-03T13:24:57;100075.81;;;16.45;83.80
8318;BME280;4196;48.926;8.964;2022-10-03T13:30:54;100058.34;;;16.53;88.16
8318;BME280;4196;48.926;8.964;2022-10-03T13:33:45;100074.78;;;16.63;81.07
8318;BME280;4196;48.926;8.964;2022-10-03T13:36:42;100057.56;;;16.42;87.39
8318;BME280;4196;48.926;8.964;2022-10-03T13:39:50;100066.31;;;16.39;79.56
8318;BME280;4196;48.926;8.964;2022-10-03T13:42:41;100048.16;;;16.26;79.13
8318;BME280;4196;48.926;8.964;2022-10-03T13:45:39;100062.72;;;15.39;81.22
8318;BME280;4196;48.926;8.964;2022-10-03T13:48:31;100067.13;;;15.32;81.66
8318;BME280;4196;48.926;8.964;2022-10-03T13:51:35;100064.50;;;15.34;83.40
8318;BME280;4196;48.926;8.964;2022-10-03T13:54:55;100070.63;;;15.27;80.25
8318;BME280;4196;48.926;8.964;2022-10-03T14:05:25;100053.88;;;15.63;75.45
8318;BME280;4196;48.926;8.964;2022-10-03T14:09:04;100045.06;;;15.84;74.19
8318;BME280;4196;48.926;8.964;2022-10-03T14:25:18;100045.53;;;15.04;79.31
8318;BME280;4196;48.926;8.964;2022-10-03T14:28:27;100042.03;;;15.11;80.39
8318;BME280;4196;48.926;8.964;2022-10-03T14:37:43;100025.50;;;15.12;81.12
8318;BME280;4196;48.926;8.964;2022-10-03T14:40:51;100028.09;;;15.09;76.73
8318;BME280;4196;48.926;8.964;2022-10-03T14:43:48;100029.03;;;15.04;75.75
8318;BME280;4196;48.926;8.964;2022-10-03T14:46:41;100005.59;;;14.96;75.11
8318;BME280;4196;48.926;8.964;2022-10-03T14:49:31;100024.56;;;15.19;75.65
8318;BME280;4196;48.926;8.964;2022-10-03T14:52:57;100028.03;;;15.25;75.14
8318;BME280;4196;48.926;8.964;2022-10-03T14:58:44;100018.34;;;15.39;73.27
8318;BME280;4196;48.926;8.964;2022-10-03T15:01:31;100015.00;;;15.23;72.64
8318;BME280;4196;48.926;8.964;2022-10-03T15:04:33;100026.38;;;15.11;70.34
8318;BME280;4196;48.926;8.964;2022-10-03T15:07:34;100016.91;;;14.90;71.97
8318;BME280;4196;48.926;8.964;2022-10-03T15:10:24;100018.59;;;15.02;70.98
8318;BME280;4196;48.926;8.964;2022-10-03T15:13:12;100010.75;;;15.02;67.91
8318;BME280;4196;48.926;8.964;2022-10-03T15:16:04;100010.69;;;15.17;72.16
8318;BME280;4196;48.926;8.964;2022-10-03T15:18:55;100019.31;;;15.32;76.08
8318;BME280;4196;48.926;8.964;2022-10-03T15:21:43;100020.19;;;15.29;71.88
8318;BME280;4196;48.926;8.964;2022-10-03T15:24:32;100015.84;;;15.27;68.53
8318;BME280;4196;48.926;8.964;2022-10-03T15:27:22;100021.97;;;15.22;71.89
8318;BME280;4196;48.926;8.964;2022-10-03T15:30:22;100010.63;;;15.23;70.92
8318;BME280;4196;48.926;8.964;2022-10-03T15:33:25;100021.13;;;15.17;79.75
8318;BME280;4196;48.926;8.964;2022-10-03T15:36:24;100001.28;;;14.92;71.89
8318;BME280;4196;48.926;8.964;2022-10-03T15:39:22;99990.88;;;14.80;72.27
8318;BME280;4196;48.926;8.964;2022-10-03T15:45:05;100010.91;;;14.78;81.95
8318;BME280;4196;48.926;8.964;2022-10-03T15:47:54;99980.59;;;14.55;87.01
8318;BME280;4196;48.926;8.964;2022-10-03T15:50:49;100004.88;;;14.60;91.81
8318;BME280;4196;48.926;8.964;2022-10-03T15:53:37;99996.22;;;14.43;83.23
8318;BME280;4196;48.926;8.964;2022-10-03T15:56:28;100001.44;;;14.44;84.32
8318;BME280;4196;48.926;8.964;2022-10-03T15:59:37;100002.31;;;14.34;94.80
8318;BME280;4196;48.926;8.964;2022-10-03T16:02:33;99995.41;;;14.22;93.65
8318;BME280;4196;48.926;8.964;2022-10-03T16:05:21;100004.13;;;14.12;96.44
8318;BME280;4196;48.926;8.964;2022-10-03T16:08:18;100005.84;;;14.02;97.16
8318;BME280;4196;48.926;8.964;2022-10-03T16:11:38;100004.16;;;13.85;100.00
8318;BME280;4196;48.926;8.964;2022-10-03T16:17:32;99980.75;;;13.45;100.00
8318;BME280;4196;48.926;8.964;2022-10-03T16:20:33;99996.34;;;13.29;100.00
8318;BME280;4196;48.926;8.964;2022-10-03T16:23:41;99997.16;;;13.15;100.00
8318;BME280;4196;48.926;8.964;2022-10-03T16:26:35;99998.00;;;13.14;100.00
8318;BME280;4196;48.926;8.964;2022-10-03T16:29:30;99992.75;;;12.94;100.00
8318;BME280;4196;48.926;8.964;2022-10-03T16:32:23;99985.78;;;12.82;100.00
8318;BME280;4196;48.926;8.964;2022-10-03T16:35:28;99984.00;;;12.60;100.00
8318;BME280;4196;48.926;8.964;2022-10-03T16:38:22;99994.34;;;12.53;100.00
8318;BME280;4196;48.926;8.964;2022-10-03T16:41:21;100005.59;;;12.54;100.00
8318;BME280;4196;48.926;8.964;2022-10-03T16:44:19;99996.00;;;12.38;100.00
8318;BME280;4196;48.926;8.964;2022-10-03T16:47:08;100002.00;;;12.27;100.00
8318;BME280;4196;48.926;8.964;2022-10-03T16:49:56;100011.41;;;12.08;100.00
8318;BME280;4196;48.926;8.964;2022-10-03T16:53:07;100015.69;;;12.02;100.00
8318;BME280;4196;48.926;8.964;2022-10-03T16:56:03;100001.72;;;11.84;100.00
8318;BME280;4196;48.926;8.964;2022-10-03T16:58:53;100001.72;;;11.84;100.00
8318;BME280;4196;48.926;8.964;2022-10-03T17:01:51;99991.16;;;11.66;100.00
8318;BME280;4196;48.926;8.964;2022-10-03T17:04:41;99992.75;;;11.47;100.00
8318;BME280;4196;48.926;8.964;2022-10-03T17:07:37;100000.47;;;11.40;100.00
8318;BME280;4196;48.926;8.964;2022-10-03T17:10:32;99999.56;;;11.34;100.00
8318;BME280;4196;48.926;8.964;2022-10-03T17:13:22;99994.31;;;11.28;100.00
8318;BME280;4196;48.926;8.964;2022-10-03T17:16:29;99994.19;;;11.16;100.00
8318;BME280;4196;48.926;8.964;2022-10-03T17:19:28;99977.50;;;10.93;100.00
8318;BME280;4196;48.926;8.964;2022-10-03T17:22:21;99977.31;;;10.73;100.00
8318;BME280;4196;48.926;8.964;2022-10-03T17:28:08;99980.56;;;10.56;100.00
8318;BME280;4196;48.926;8.964;2022-10-03T17:31:03;99971.69;;;10.37;100.00
8318;BME280;4196;48.926;8.964;2022-10-03T17:34:13;99987.25;;;10.39;100.00
8318;BME280;4196;48.926;8.964;2022-10-03T17:43:04;99994.84;;;10.25;100.00
8318;BME280;4196;48.926;8.964;2022-10-03T17:46:03;99981.66;;;10.11;100.00
8318;BME280;4196;48.926;8.964;2022-10-03T17:49:01;99990.94;;;9.96;100.00
8318;BME280;4196;48.926;8.964;2022-10-03T17:51:53;99985.81;;;9.99;100.00
8318;BME280;4196;48.926;8.964;2022-10-03T17:54:44;99985.59;;;9.83;100.00
8318;BME280;4196;48.926;8.964;2022-10-03T17:57:39;99976.69;;;9.66;100.00
8318;BME280;4196;48.926;8.964;2022-10-03T18:00:34;99971.41;;;9.60;100.00
8318;BME280;4196;48.926;8.964;2022-10-03T18:06:41;99980.03;;;9.59;100.00
8318;BME280;4196;48.926;8.964;2022-10-03T18:09:37;99969.31;;;9.37;100.00
8318;BME280;4196;48.926;8.964;2022-10-03T18:12:35;99973.50;;;9.31;100.00
8318;BME280;4196;48.926;8.964;2022-10-03T18:21:39;99976.69;;;9.16;100.00
8318;BME280;4196;48.926;8.964;2022-10-03T18:27:53;99982.50;;;9.03;100.00
8318;BME280;4196;48.926;8.964;2022-10-03T18:31:05;99980.66;;;8.95;100.00
8318;BME280;4196;48.926;8.964;2022-10-03T18:33:57;99968.28;;;8.79;100.00
8318;BME280;4196;48.926;8.964;2022-10-03T18:36:48;99982.13;;;8.83;100.00
8318;BME280;4196;48.926;8.964;2022-10-03T18:39:37;99973.44;;;8.79;100.00
8318;BME280;4196;48.926;8.964;2022-10-03T18:42:28;99975.94;;;8.76;100.00
8318;BME280;4196;48.926;8.964;2022-10-03T18:45:30;99987.06;;;8.72;100.00
8318;BME280;4196;48.926;8.964;2022-10-03T18:51:26;99985.19;;;8.63;100.00
8318;BME280;4196;48.926;8.964;2022-10-03T18:54:31;99970.25;;;8.49;100.00
8318;BME280;4196;48.926;8.964;2022-10-03T19:00:18;99960.84;;;8.51;100.00
8318;BME280;4196;48.926;8.964;2022-10-03T19:03:17;99979.81;;;8.54;100.00
8318;BME280;4196;48.926;8.964;2022-10-03T19:06:26;99959.53;;;8.30;100.00
8318;BME280;4196;48.926;8.964;2022-10-03T19:09:21;99952.25;;;8.12;100.00
8318;BME280;4196;48.926;8.964;2022-10-03T19:12:21;99992.22;;;8.31;100.00
8318;BME280;4196;48.926;8.964;2022-10-03T19:18:22;99982.34;;;8.12;100.00
8318;BME280;4196;48.926;8.964;2022-10-03T19:21:17;99963.84;;;7.92;100.00
8318;BME280;4196;48.926;8.964;2022-10-03T19:24:16;99993.19;;;7.97;100.00
8318;BME280;4196;48.926;8.964;2022-10-03T19:28:00;99989.66;;;7.93;100.00
8318;BME280;4196;48.926;8.964;2022-10-03T19:34:00;99980.13;;;7.89;100.00
8318;BME280;4196;48.926;8.964;2022-10-03T19:36:49;99983.56;;;7.88;100.00
8318;BME280;4196;48.926;8.964;2022-10-03T19:39:37;99981.16;;;7.96;100.00
8318;BME280;4196;48.926;8.964;2022-10-03T19:43:21;99984.78;;;8.06;100.00
8318;BME280;4196;48.926;8.964;2022-10-03T19:46:11;99982.84;;;7.95;100.00
8318;BME280;4196;48.926;8.964;2022-10-03T19:49:24;99992.09;;;7.87;100.00
8318;BME280;4196;48.926;8.964;2022-10-03T19:52:26;99995.44;;;7.83;100.00
8318;BME280;4196;48.926;8.964;2022-10-03T19:55:29;99983.81;;;7.63;100.00
8318;BME280;4196;48.926;8.964;2022-10-03T19:58:21;99976.56;;;7.48;100.00
8318;BME280;4196;48.926;8.964;2022-10-03T20:01:10;99980.03;;;7.48;100.00
8318;BME280;4196;48.926;8.964;2022-10-03T20:03:56;99975.63;;;7.44;100.00
8318;BME280;4196;48.926;8.964;2022-10-03T20:06:45;99972.91;;;7.40;100.00
8318;BME280;4196;48.926;8.964;2022-10-03T20:09:34;99956.09;;;7.19;100.00
8318;BME280;4196;48.926;8.964;2022-10-03T20:12:25;99910.72;;;6.90;100.00
8318;BME280;4196;48.926;8.964;2022-10-03T20:15:22;99955.94;;;7.13;100.00
8318;BME280;4196;48.926;8.964;2022-10-03T20:18:18;99958.56;;;7.15;100.00
8318;BME280;4196;48.926;8.964;2022-10-03T20:21:10;99978.63;;;7.28;100.00
8318;BME280;4196;48.926;8.964;2022-10-03T20:23:59;99949.56;;;6.99;100.00
8318;BME280;4196;48.926;8.964;2022-10-03T20:26:58;99914.72;;;6.78;100.00
8318;BME280;4196;48.926;8.964;2022-10-03T20:30:06;99985.88;;;7.10;100.00
8318;BME280;4196;48.926;8.964;2022-10-03T20:32:55;99906.44;;;6.59;100.00
8318;BME280;4196;48.926;8.964;2022-10-03T20:35:53;99956.31;;;6.94;100.00
8318;BME280;4196;48.926;8.964;2022-10-03T20:39:11;99979.56;;;6.97;100.00
8318;BME280;4196;48.926;8.964;2022-10-03T20:45:00;99981.00;;;6.87;100.00
8318;BME280;4196;48.926;8.964;2022-10-03T20:47:57;99973.84;;;6.77;100.00
8318;BME280;4196;48.926;8.964;2022-10-03T20:50:46;99973.81;;;6.74;100.00
8318;BME280;4196;48.926;8.964;2022-10-03T20:53:33;99878.06;;;6.24;100.00
8318;BME280;4196;48.926;8.964;2022-10-03T20:56:25;99958.41;;;6.77;100.00
8318;BME280;4196;48.926;8.964;2022-10-03T20:59:16;99966.09;;;6.75;100.00
8318;BME280;4196;48.926;8.964;2022-10-03T21:02:17;99937.94;;;6.50;100.00
8318;BME280;4196;48.926;8.964;2022-10-03T21:05:19;99969.22;;;6.64;100.00
8318;BME280;4196;48.926;8.964;2022-10-03T21:08:19;99962.09;;;6.55;100.00
8318;BME280;4196;48.926;8.964;2022-10-03T21:13:58;99967.78;;;6.43;100.00
8318;BME280;4196;48.926;8.964;2022-10-03T21:16:50;99938.28;;;6.31;100.00
8318;BME280;4196;48.926;8.964;2022-10-03T21:19:45;99947.84;;;6.36;100.00
8318;BME280;4196;48.926;8.964;2022-10-03T21:22:34;99934.75;;;6.27;100.00
8318;BME280;4196;48.926;8.964;2022-10-03T21:25:33;99907.78;;;6.14;100.00
8318;BME280;4196;48.926;8.964;2022-10-03T21:28:24;99943.34;;;6.29;100.00
8318;BME280;4196;48.926;8.964;2022-10-03T21:34:21;99934.56;;;6.21;100.00
8318;BME280;4196;48.926;8.964;2022-10-03T21:46:36;99942.75;;;6.08;100.00
8318;BME280;4196;48.926;8.964;2022-10-03T21:55:47;99944.19;;;5.99;100.00
8318;BME280;4196;48.926;8.964;2022-10-03T21:59:03;99923.34;;;5.90;100.00
8318;BME280;4196;48.926;8.964;2022-10-03T22:02:14;99938.06;;;5.94;100.00
8318;BME280;4196;48.926;8.964;2022-10-03T22:05:26;99923.16;;;5.84;100.00
8318;BME280;4196;48.926;8.964;2022-10-03T22:08:36;99790.44;;;5.00;100.00
8318;BME280;4196;48.926;8.964;2022-10-03T22:11:45;99935.28;;;5.88;100.00
8318;BME280;4196;48.926;8.964;2022-10-03T22:14:36;99931.69;;;5.83;100.00
8318;BME280;4196;48.926;8.964;2022-10-03T22:17:38;99889.72;;;5.55;100.00
8318;BME280;4196;48.926;8.964;2022-10-03T22:20:29;99896.63;;;5.56;100.00
8318;BME280;4196;48.926;8.964;2022-10-03T22:23:25;99904.47;;;5.61;100.00
8318;BME280;4196;48.926;8.964;2022-10-03T22:35:53;99896.63;;;5.56;100.00
8318;BME280;4196;48.926;8.964;2022-10-03T22:38:40;99902.03;;;5.66;100.00
8318;BME280;4196;48.926;8.964;2022-10-03T22:41:29;99888.09;;;5.57;100.00
8318;BME280;4196;48.926;8.964;2022-10-03T22:44:18;99900.22;;;5.62;100.00
8318;BME280;4196;48.926;8.964;2022-10-03T22:47:29;99895.81;;;5.57;100.00
8318;BME280;4196;48.926;8.964;2022-10-03T22:50:20;99882.38;;;5.39;100.00
8318;BME280;4196;48.926;8.964;2022-10-03T22:53:14;99895.19;;;5.38;100.00
8318;BME280;4196;48.926;8.964;2022-10-03T22:56:30;99887.41;;;5.36;100.00
8318;BME280;4196;48.926;8.964;2022-10-03T22:59:27;99877.06;;;5.33;100.00
8318;BME280;4196;48.926;8.964;2022-10-03T23:02:16;99866.50;;;5.24;100.00
8318;BME280;4196;48.926;8.964;2022-10-03T23:05:08;99881.91;;;5.24;100.00
8318;BME280;4196;48.926;8.964;2022-10-03T23:11:12;99895.47;;;5.20;100.00
8318;BME280;4196;48.926;8.964;2022-10-03T23:14:24;99879.88;;;5.14;100.00
8318;BME280;4196;48.926;8.964;2022-10-03T23:20:39;99898.78;;;5.16;100.00
8318;BME280;4196;48.926;8.964;2022-10-03T23:32:58;99862.03;;;4.91;100.00
8318;BME280;4196;48.926;8.964;2022-10-03T23:35:46;99855.66;;;4.80;100.00
8318;BME280;4196;48.926;8.964;2022-10-03T23:41:31;99876.41;;;4.86;100.00
8318;BME280;4196;48.926;8.964;2022-10-03T23:44:30;99879.75;;;4.83;100.00
8318;BME280;4196;48.926;8.964;2022-10-03T23:47:24;99866.16;;;4.86;100.00
8318;BME280;4196;48.926;8.964;2022-10-03T23:51:07;99860.19;;;4.87;100.00
8318;BME280;4196;48.926;8.964;2022-10-03T23:53:37;99857.75;;;4.92;100.00
8318;BME280;4196;48.926;8.964;2022-10-03T23:56:29;99843.00;;;4.84;100.00
8318;BME280;4196;48.926;8.964;2022-10-03T23:59:26;99852.41;;;4.85;100.00
